Time;durP1;ratioP1;P1;durP2;ratioP2;P2;SDS_P1;SDS_P2;PMS_P1;PMS_P2;Temp;Humidity;BMP_temperature;BMP_pressure;BME280_temperature;BME280_humidity;BME280_pressure;Samples;Min_cycle;Max_cycle;Signal;HPM_P1;HPM_P2
2021/07/19 00:01:13;;;;;;;13.77;3.60;;;16.30;71.00;;;;;;5097287;28;20177;-91
2021/07/19 00:03:39;;;;;;;15.27;3.85;;;16.30;71.00;;;;;;5096119;28;20617;-90
2021/07/19 00:06:05;;;;;;;11.70;3.95;;;16.30;70.60;;;;;;5095876;28;20233;-91
2021/07/19 00:08:30;;;;;;;8.45;3.03;;;16.40;70.70;;;;;;5096863;28;20558;-91
2021/07/19 00:10:57;;;;;;;13.88;3.85;;;16.40;70.90;;;;;;5095537;28;20247;-91
2021/07/19 00:13:24;;;;;;;10.52;3.03;;;16.30;71.10;;;;;;5096239;28;20170;-90
2021/07/19 00:15:50;;;;;;;9.55;3.40;;;16.30;71.10;;;;;;5095699;28;20258;-90
2021/07/19 00:18:15;;;;;;;8.95;3.10;;;16.30;71.20;;;;;;5095841;28;20217;-91
2021/07/19 00:20:41;;;;;;;19.30;3.88;;;16.30;71.10;;;;;;5094737;28;20227;-91
2021/07/19 00:23:07;;;;;;;10.40;3.90;;;16.30;71.30;;;;;;5094673;28;20602;-90
2021/07/19 00:25:33;;;;;;;13.95;3.35;;;16.30;71.20;;;;;;5096259;28;20233;-91
2021/07/19 00:27:58;;;;;;;23.80;4.60;;;16.30;71.20;;;;;;5094388;28;20193;-90
2021/07/19 00:30:25;;;;;;;15.57;4.53;;;16.30;71.60;;;;;;5094896;28;20233;-90
2021/07/19 00:32:51;;;;;;;11.40;3.97;;;16.30;71.30;;;;;;5095400;28;20171;-90
2021/07/19 00:35:17;;;;;;;12.27;3.78;;;16.30;71.50;;;;;;5095100;28;20234;-90
2021/07/19 00:37:43;;;;;;;8.95;4.15;;;16.40;71.30;;;;;;5095871;28;20171;-90
2021/07/19 00:40:11;;;;;;;10.77;3.55;;;16.40;71.10;;;;;;5096045;28;20171;-89
2021/07/19 00:42:40;;;;;;;13.70;3.83;;;16.40;71.10;;;;;;5095420;28;20251;-90
2021/07/19 00:45:13;;;;;;;11.80;3.83;;;16.40;70.80;;;;;;5096957;28;20302;-90
2021/07/19 00:47:41;;;;;;;16.30;3.85;;;16.50;71.30;;;;;;5095193;28;20646;-90
2021/07/19 00:50:07;;;;;;;8.85;3.95;;;16.40;71.40;;;;;;5095994;28;20662;-90
2021/07/19 00:52:33;;;;;;;13.20;3.70;;;16.30;71.70;;;;;;5096586;28;20183;-90
2021/07/19 00:55:01;;;;;;;13.70;3.63;;;16.30;71.90;;;;;;5096062;28;20245;-90
2021/07/19 00:57:28;;;;;;;14.80;3.50;;;16.40;72.20;;;;;;5095537;28;20218;-90
2021/07/19 00:59:54;;;;;;;12.00;3.10;;;16.50;71.70;;;;;;5096097;28;20206;-90
2021/07/19 01:02:20;;;;;;;8.23;3.08;;;16.50;71.70;;;;;;5097046;28;20180;-90
2021/07/19 01:04:47;;;;;;;17.63;3.47;;;16.30;71.90;;;;;;5097631;28;20230;-90
2021/07/19 01:07:16;;;;;;;13.45;3.75;;;16.30;72.10;;;;;;5100448;28;20224;-90
2021/07/19 01:09:42;;;;;;;13.65;3.85;;;16.30;72.70;;;;;;5100785;28;20726;-89
2021/07/19 01:12:08;;;;;;;11.93;4.55;;;16.30;72.80;;;;;;5100836;28;20228;-90
2021/07/19 01:14:34;;;;;;;12.82;3.72;;;16.30;72.90;;;;;;5101097;28;20175;-90
2021/07/19 01:16:59;;;;;;;12.48;3.38;;;16.40;72.50;;;;;;5101906;28;20171;-90
2021/07/19 01:19:32;;;;;;;9.50;3.42;;;16.40;72.70;;;;;;5101441;28;20171;-89
2021/07/19 01:22:09;;;;;;;12.80;3.78;;;16.40;72.80;;;;;;5103431;28;20158;-90
2021/07/19 01:24:43;;;;;;;14.18;3.28;;;16.50;72.80;;;;;;5102358;28;20163;-89
2021/07/19 01:27:47;;;;;;;16.75;3.75;;;16.40;72.70;;;;;;5101717;28;20439;-90
2021/07/19 01:30:13;;;;;;;13.60;4.03;;;16.50;72.60;;;;;;5103149;28;20178;-89
2021/07/19 01:32:45;;;;;;;13.60;3.80;;;16.50;72.50;;;;;;5099180;28;20175;-89
2021/07/19 01:35:12;;;;;;;14.57;3.67;;;16.50;72.60;;;;;;5100980;28;20187;-90
2021/07/19 01:37:39;;;;;;;17.85;4.07;;;16.50;72.80;;;;;;5098462;28;20171;-90
2021/07/19 01:40:07;;;;;;;14.77;3.97;;;16.50;73.00;;;;;;5098571;28;20175;-90
2021/07/19 01:42:34;;;;;;;11.50;3.58;;;16.40;72.80;;;;;;5098997;28;20175;-90
2021/07/19 01:45:06;;;;;;;11.70;3.97;;;16.40;72.70;;;;;;5098366;28;20217;-90
2021/07/19 01:47:32;;;;;;;18.70;4.03;;;16.40;72.90;;;;;;5098352;28;20615;-91
2021/07/19 01:50:00;;;;;;;11.13;3.13;;;16.30;72.90;;;;;;5098407;28;20190;-90
2021/07/19 01:52:27;;;;;;;13.50;3.28;;;16.40;72.80;;;;;;5100151;28;20163;-91
2021/07/19 01:54:53;;;;;;;16.13;4.32;;;16.40;72.70;;;;;;5099113;28;20194;-91
2021/07/19 01:57:20;;;;;;;11.55;3.72;;;16.40;72.60;;;;;;5099394;28;20178;-91
2021/07/19 01:59:47;;;;;;;12.23;3.53;;;16.40;72.50;;;;;;5099168;28;20171;-91
2021/07/19 02:02:15;;;;;;;17.38;3.90;;;16.40;72.10;;;;;;5098685;28;20216;-91
2021/07/19 02:04:41;;;;;;;13.65;3.42;;;16.50;71.50;;;;;;5098500;28;20182;-91
2021/07/19 02:07:07;;;;;;;13.30;4.20;;;16.50;71.30;;;;;;5097701;28;20194;-91
2021/07/19 02:09:35;;;;;;;10.85;3.17;;;16.50;72.00;;;;;;5098588;28;20285;-91
2021/07/19 02:12:02;;;;;;;11.52;3.45;;;16.50;71.40;;;;;;5099433;28;20231;-91
2021/07/19 02:14:29;;;;;;;16.52;3.75;;;16.50;71.60;;;;;;5097975;28;20171;-91
2021/07/19 02:16:55;;;;;;;12.27;3.33;;;16.40;71.80;;;;;;5097979;28;20224;-91
2021/07/19 02:19:24;;;;;;;14.13;4.57;;;16.40;71.80;;;;;;5098354;28;20171;-91
2021/07/19 02:21:50;;;;;;;12.27;3.38;;;16.30;71.90;;;;;;5098602;28;20729;-91
2021/07/19 02:24:18;;;;;;;13.52;4.30;;;16.30;72.10;;;;;;5098170;28;20646;-91
2021/07/19 02:26:45;;;;;;;11.18;3.70;;;16.40;71.70;;;;;;5097901;28;20781;-90
2021/07/19 02:29:11;;;;;;;11.35;3.67;;;16.30;71.90;;;;;;5098289;28;20179;-90
2021/07/19 02:31:39;;;;;;;10.85;4.47;;;16.30;72.00;;;;;;5098790;28;20174;-91
2021/07/19 02:34:05;;;;;;;12.63;3.67;;;16.30;72.10;;;;;;5097941;28;20261;-90
2021/07/19 02:36:31;;;;;;;11.38;3.60;;;16.40;71.90;;;;;;5098124;28;20283;-90
2021/07/19 02:38:58;;;;;;;11.02;3.83;;;16.30;72.00;;;;;;5098288;28;20171;-91
2021/07/19 02:41:26;;;;;;;13.32;3.47;;;16.20;72.00;;;;;;5098279;28;20224;-90
2021/07/19 02:43:54;;;;;;;11.90;4.28;;;16.30;72.30;;;;;;5097894;28;20261;-90
2021/07/19 02:46:23;;;;;;;13.63;4.53;;;16.30;72.00;;;;;;5098004;28;20194;-91
2021/07/19 02:48:56;;;;;;;13.35;4.10;;;16.30;71.90;;;;;;5097116;28;20684;-91
2021/07/19 02:51:34;;;;;;;;;;;;;;;;;;;;;
2021/07/19 02:54:03;;;;;;;11.15;3.72;;;16.30;71.80;;;;;;5099282;28;20169;-90
2021/07/19 02:56:33;;;;;;;11.02;4.32;;;16.30;71.50;;;;;;5097537;28;20213;-90
2021/07/19 02:58:58;;;;;;;9.68;3.88;;;16.30;71.10;;;;;;5098443;28;20603;-90
2021/07/19 03:01:26;;;;;;;12.38;4.78;;;16.30;71.20;;;;;;5097350;28;20278;-91
2021/07/19 03:03:55;;;;;;;9.65;4.00;;;16.30;71.20;;;;;;5096862;28;20186;-90
2021/07/19 03:06:25;;;;;;;14.55;4.80;;;16.30;70.40;;;;;;5096962;28;20210;-91
2021/07/19 03:08:52;;;;;;;10.30;4.53;;;16.30;70.10;;;;;;5097112;28;20171;-90
2021/07/19 03:11:26;;;;;;;8.73;4.82;;;16.30;70.00;;;;;;5097405;28;20195;-91
2021/07/19 03:13:55;;;;;;;12.63;5.05;;;16.30;69.50;;;;;;5097980;28;20220;-90
2021/07/19 03:16:25;;;;;;;9.63;4.80;;;16.30;69.60;;;;;;5097443;28;20190;-91
2021/07/19 03:18:52;;;;;;;14.20;5.05;;;16.30;69.60;;;;;;5095948;28;20196;-90
2021/07/19 03:21:19;;;;;;;10.27;5.20;;;16.30;69.70;;;;;;5095965;28;20181;-91
2021/07/19 03:23:46;;;;;;;12.80;4.38;;;16.30;69.60;;;;;;5096062;28;20178;-90
2021/07/19 03:26:12;;;;;;;9.85;5.07;;;16.30;69.60;;;;;;5095704;28;20281;-91
2021/07/19 03:28:41;;;;;;;11.98;5.22;;;16.40;69.40;;;;;;5096351;28;20713;-91
2021/07/19 03:31:07;;;;;;;11.55;5.18;;;16.30;70.10;;;;;;5096159;28;20202;-90
2021/07/19 03:33:41;;;;;;;9.63;5.35;;;16.30;70.20;;;;;;5095619;28;20179;-91
2021/07/19 03:36:08;;;;;;;11.75;5.57;;;16.30;69.70;;;;;;5096689;28;20285;-90
2021/07/19 03:38:36;;;;;;;10.00;5.53;;;16.30;69.90;;;;;;5096430;28;20175;-91
2021/07/19 03:41:02;;;;;;;11.77;5.32;;;16.30;70.30;;;;;;5096606;28;20659;-91
2021/07/19 03:43:31;;;;;;;12.27;6.38;;;16.20;70.60;;;;;;5096175;28;20185;-91
2021/07/19 03:45:56;;;;;;;13.35;5.75;;;16.20;70.80;;;;;;5096183;28;20194;-91
2021/07/19 03:48:23;;;;;;;8.15;5.05;;;16.20;71.00;;;;;;5096334;28;20181;-91
2021/07/19 03:50:51;;;;;;;13.13;5.45;;;16.20;71.50;;;;;;5096592;28;20269;-91
2021/07/19 03:53:17;;;;;;;10.55;5.78;;;16.20;71.70;;;;;;5095521;28;20171;-91
2021/07/19 03:55:47;;;;;;;13.07;6.05;;;16.20;71.70;;;;;;5096647;28;20205;-91
2021/07/19 03:58:13;;;;;;;12.73;5.65;;;16.30;71.80;;;;;;5096052;28;20171;-91
2021/07/19 04:00:39;;;;;;;10.77;6.30;;;16.30;72.30;;;;;;5096687;28;20205;-91
2021/07/19 04:04:09;;;;;;;13.30;6.68;;;16.20;72.30;;;;;;5095790;28;20262;-91
2021/07/19 04:06:03;;;;;;;14.18;6.88;;;16.20;72.30;;;;;;5082479;28;20214;-90
2021/07/19 04:08:34;;;;;;;14.35;7.65;;;16.20;72.30;;;;;;5095338;28;20187;-90
2021/07/19 04:11:00;;;;;;;17.63;7.65;;;16.20;72.40;;;;;;5095657;28;20190;-90
2021/07/19 04:13:26;;;;;;;15.75;7.63;;;16.20;72.50;;;;;;5094873;28;20178;-91
2021/07/19 04:15:53;;;;;;;15.65;8.05;;;16.20;72.60;;;;;;5096775;28;20187;-90
2021/07/19 04:18:21;;;;;;;12.10;7.22;;;16.20;72.60;;;;;;5094799;28;20182;-90
2021/07/19 04:20:49;;;;;;;12.02;7.40;;;16.20;72.60;;;;;;5094530;28;20182;-90
2021/07/19 04:23:15;;;;;;;13.43;7.60;;;16.30;72.20;;;;;;5094609;28;20615;-90
2021/07/19 04:25:41;;;;;;;17.08;7.55;;;16.30;71.50;;;;;;5094528;28;20205;-90
2021/07/19 04:28:07;;;;;;;15.25;7.43;;;16.20;71.80;;;;;;5095686;28;20177;-90
2021/07/19 04:30:35;;;;;;;12.27;7.53;;;16.20;71.80;;;;;;5095356;28;20195;-90
2021/07/19 04:33:02;;;;;;;14.70;7.55;;;16.20;71.70;;;;;;5096120;28;20171;-90
2021/07/19 04:35:28;;;;;;;12.80;8.15;;;16.30;71.30;;;;;;5095480;28;20556;-91
2021/07/19 04:37:54;;;;;;;9.98;7.53;;;16.30;71.10;;;;;;5095423;28;20174;-91
2021/07/19 04:40:21;;;;;;;15.52;8.63;;;16.30;71.00;;;;;;5093355;28;20178;-90
2021/07/19 04:42:47;;;;;;;9.50;7.55;;;16.30;71.60;;;;;;5094626;28;20182;-90
2021/07/19 04:45:16;;;;;;;14.85;8.05;;;16.40;71.70;;;;;;5093721;28;20202;-90
2021/07/19 04:47:42;;;;;;;13.07;7.75;;;16.30;71.50;;;;;;5094748;28;20174;-90
2021/07/19 04:50:08;;;;;;;15.77;8.18;;;16.30;71.70;;;;;;5095274;28;20202;-90
2021/07/19 04:52:35;;;;;;;14.18;7.68;;;16.30;71.60;;;;;;5095194;28;20210;-90
2021/07/19 04:55:02;;;;;;;12.90;7.70;;;16.30;71.80;;;;;;5094854;28;20615;-90
2021/07/19 04:57:29;;;;;;;9.20;7.57;;;16.30;72.00;;;;;;5095062;28;20174;-91
2021/07/19 04:59:57;;;;;;;12.60;6.85;;;16.30;71.90;;;;;;5095835;28;20707;-91
2021/07/19 05:02:25;;;;;;;16.95;8.15;;;16.30;71.80;;;;;;5094143;28;20179;-90
2021/07/19 05:04:53;;;;;;;15.73;7.63;;;16.40;71.70;;;;;;5094546;28;20185;-91
2021/07/19 05:07:25;;;;;;;12.32;8.20;;;16.30;72.30;;;;;;5095581;28;20249;-91
2021/07/19 05:09:52;;;;;;;12.82;7.85;;;16.40;72.40;;;;;;5093859;28;20254;-91
2021/07/19 05:12:21;;;;;;;13.70;8.10;;;16.40;72.70;;;;;;5094397;28;20170;-91
2021/07/19 05:14:48;;;;;;;12.85;8.32;;;16.40;72.80;;;;;;5094679;28;20185;-91
2021/07/19 05:17:15;;;;;;;15.85;7.60;;;16.40;72.70;;;;;;5094355;28;20170;-90
2021/07/19 05:19:43;;;;;;;13.60;7.53;;;16.30;72.60;;;;;;5094467;28;20228;-91
2021/07/19 05:22:12;;;;;;;12.32;7.10;;;16.40;73.00;;;;;;5094749;28;20198;-90
2021/07/19 05:24:39;;;;;;;18.48;7.88;;;16.40;72.40;;;;;;5094502;28;20177;-90
2021/07/19 05:27:06;;;;;;;10.57;7.28;;;16.50;71.50;;;;;;5094935;28;20171;-90
2021/07/19 05:29:37;;;;;;;11.70;7.68;;;16.60;70.30;;;;;;5095792;28;20199;-90
2021/07/19 05:32:04;;;;;;;12.80;7.93;;;16.50;71.00;;;;;;5093651;28;20159;-90
2021/07/19 05:34:30;;;;;;;13.68;7.70;;;16.50;70.50;;;;;;5094482;28;20254;-90
2021/07/19 05:36:56;;;;;;;12.88;6.80;;;16.60;69.40;;;;;;5094236;28;20546;-90
2021/07/19 05:39:22;;;;;;;9.00;6.78;;;16.50;70.20;;;;;;5093333;28;20174;-90
2021/07/19 05:41:48;;;;;;;11.45;7.00;;;16.60;69.60;;;;;;5094184;28;20188;-90
2021/07/19 05:44:14;;;;;;;14.43;7.88;;;16.60;69.20;;;;;;5093640;28;20171;-90
2021/07/19 05:46:40;;;;;;;12.30;7.25;;;16.60;69.00;;;;;;5095132;28;20198;-90
2021/07/19 05:49:06;;;;;;;11.77;6.50;;;16.70;69.80;;;;;;5093488;28;20545;-90
2021/07/19 05:51:31;;;;;;;14.05;7.93;;;16.70;69.00;;;;;;5093665;28;20202;-91
2021/07/19 05:53:57;;;;;;;11.23;7.47;;;16.80;69.60;;;;;;5097417;28;20175;-90
2021/07/19 05:56:23;;;;;;;11.50;6.90;;;16.80;69.30;;;;;;5098567;28;20564;-91
2021/07/19 05:58:49;;;;;;;10.73;6.75;;;16.80;69.50;;;;;;5096636;28;20174;-91
2021/07/19 06:01:14;;;;;;;11.38;7.50;;;16.80;69.30;;;;;;5098393;28;20198;-91
2021/07/19 06:03:40;;;;;;;12.73;6.82;;;16.80;70.00;;;;;;5096558;28;20243;-91
2021/07/19 06:06:06;;;;;;;16.35;7.25;;;16.90;69.80;;;;;;5096766;28;20628;-90
2021/07/19 06:08:32;;;;;;;10.27;7.10;;;16.90;69.30;;;;;;5098080;28;20171;-90
2021/07/19 06:10:59;;;;;;;11.93;7.35;;;17.00;68.30;;;;;;5098924;28;20214;-90
2021/07/19 06:13:24;;;;;;;12.45;7.30;;;17.00;68.30;;;;;;5098961;28;20170;-90
2021/07/19 06:15:50;;;;;;;9.02;7.00;;;17.00;69.20;;;;;;5099978;28;20243;-90
2021/07/19 06:18:16;;;;;;;17.33;7.45;;;17.00;68.60;;;;;;5098479;28;20167;-90
2021/07/19 06:20:42;;;;;;;12.50;7.15;;;17.10;67.80;;;;;;5099659;28;20187;-90
2021/07/19 06:23:08;;;;;;;9.75;6.10;;;17.10;68.00;;;;;;5097724;28;20242;-90
2021/07/19 06:25:37;;;;;;;10.38;6.13;;;17.20;67.80;;;;;;5098477;28;20201;-90
2021/07/19 06:28:05;;;;;;;8.50;6.30;;;17.20;67.90;;;;;;5098450;28;20542;-90
2021/07/19 06:30:31;;;;;;;9.30;5.88;;;17.20;65.90;;;;;;5097733;28;20245;-90
2021/07/19 06:32:57;;;;;;;11.50;6.38;;;17.30;65.00;;;;;;5098009;28;20209;-90
2021/07/19 06:35:24;;;;;;;11.85;6.00;;;17.30;65.80;;;;;;5097905;28;20235;-90
2021/07/19 06:37:50;;;;;;;15.18;6.13;;;17.40;65.50;;;;;;5097405;28;20707;-90
2021/07/19 06:40:16;;;;;;;12.60;6.55;;;17.50;66.10;;;;;;5098042;28;20183;-90
2021/07/19 06:42:41;;;;;;;11.80;5.97;;;17.50;66.10;;;;;;5096960;28;20205;-90
2021/07/19 06:45:10;;;;;;;12.02;6.22;;;17.50;65.40;;;;;;5096487;28;20202;-90
2021/07/19 06:47:36;;;;;;;10.63;5.85;;;17.60;64.30;;;;;;5098411;28;20163;-90
2021/07/19 06:50:04;;;;;;;9.27;5.95;;;17.70;65.70;;;;;;5097768;28;20182;-90
2021/07/19 06:52:29;;;;;;;9.85;5.63;;;17.70;63.20;;;;;;5098451;28;20257;-90
2021/07/19 06:54:55;;;;;;;9.98;5.57;;;17.80;63.90;;;;;;5097727;28;20225;-90
2021/07/19 06:57:21;;;;;;;8.90;4.93;;;17.70;64.10;;;;;;5096861;28;20175;-90
2021/07/19 06:59:47;;;;;;;7.45;4.82;;;17.70;62.90;;;;;;5096475;28;20185;-90
2021/07/19 07:02:13;;;;;;;10.85;5.63;;;17.70;62.20;;;;;;5095637;28;20273;-90
2021/07/19 07:04:39;;;;;;;9.23;5.22;;;17.70;62.20;;;;;;5096838;28;20218;-90
2021/07/19 07:07:05;;;;;;;8.85;5.68;;;17.80;61.80;;;;;;5096052;28;20191;-90
2021/07/19 07:09:32;;;;;;;9.70;5.05;;;17.80;63.00;;;;;;5096602;28;20177;-90
2021/07/19 07:11:57;;;;;;;10.65;5.53;;;17.80;64.70;;;;;;5095722;28;20175;-90
2021/07/19 07:14:23;;;;;;;8.38;5.03;;;17.80;65.90;;;;;;5096983;28;20603;-90
2021/07/19 07:16:49;;;;;;;9.23;5.68;;;17.80;65.50;;;;;;5095800;28;20559;-90
2021/07/19 07:19:15;;;;;;;9.52;5.05;;;17.80;64.50;;;;;;5095312;28;20178;-90
2021/07/19 07:21:41;;;;;;;8.88;4.97;;;17.90;63.40;;;;;;5095302;28;20175;-90
2021/07/19 07:24:06;;;;;;;13.85;5.38;;;17.90;62.60;;;;;;5096576;28;20173;-90
2021/07/19 07:26:32;;;;;;;8.82;5.28;;;17.90;61.90;;;;;;5096036;28;20190;-90
2021/07/19 07:28:58;;;;;;;8.20;4.88;;;18.00;63.50;;;;;;5096137;28;20167;-90
2021/07/19 07:31:27;;;;;;;8.43;5.38;;;18.00;63.10;;;;;;5095578;28;20696;-90
2021/07/19 07:33:59;;;;;;;8.95;4.63;;;18.10;62.10;;;;;;5095892;28;20541;-90
2021/07/19 07:36:26;;;;;;;6.50;5.32;;;18.10;61.60;;;;;;5097510;28;20190;-91
2021/07/19 07:38:52;;;;;;;8.70;5.07;;;18.00;63.90;;;;;;5097661;28;20242;-90
2021/07/19 07:41:19;;;;;;;12.50;5.22;;;18.00;63.40;;;;;;5098036;28;20175;-90
2021/07/19 07:43:45;;;;;;;8.82;4.50;;;18.10;63.20;;;;;;5097493;28;20186;-90
2021/07/19 07:46:12;;;;;;;8.38;5.13;;;18.20;61.60;;;;;;5098192;28;20193;-90
2021/07/19 07:48:37;;;;;;;9.25;5.28;;;18.30;61.90;;;;;;5097622;28;20193;-90
2021/07/19 07:51:07;;;;;;;10.13;4.70;;;18.20;63.00;;;;;;5097757;28;20658;-90
2021/07/19 07:53:33;;;;;;;9.82;5.47;;;18.20;61.90;;;;;;5096909;28;20177;-90
2021/07/19 07:55:59;;;;;;;9.20;5.10;;;18.20;61.80;;;;;;5097142;28;20195;-90
2021/07/19 07:58:29;;;;;;;8.05;4.68;;;18.40;61.90;;;;;;5098230;28;20165;-88
2021/07/19 08:00:55;;;;;;;11.00;5.40;;;18.50;61.30;;;;;;5098965;28;20205;-90
2021/07/19 08:03:21;;;;;;;6.90;4.95;;;18.40;63.20;;;;;;5097277;28;20265;-90
2021/07/19 08:05:48;;;;;;;9.48;4.97;;;18.50;62.10;;;;;;5097217;28;20214;-91
2021/07/19 08:08:13;;;;;;;10.10;5.00;;;18.50;62.10;;;;;;5098365;28;20230;-90
2021/07/19 08:10:39;;;;;;;9.68;5.10;;;18.60;62.50;;;;;;5097585;28;20233;-90
2021/07/19 08:13:05;;;;;;;7.90;4.28;;;18.70;60.80;;;;;;5097303;28;20207;-90
2021/07/19 08:15:36;;;;;;;10.07;4.93;;;18.60;61.10;;;;;;5094981;28;20187;-90
2021/07/19 08:18:03;;;;;;;8.88;4.30;;;18.70;61.90;;;;;;5095591;28;20177;-90
2021/07/19 08:20:29;;;;;;;5.70;3.35;;;18.80;60.10;;;;;;5096205;28;20171;-90
2021/07/19 08:22:54;;;;;;;5.97;3.58;;;18.90;58.20;;;;;;5096977;28;20186;-90
2021/07/19 08:25:20;;;;;;;9.07;3.90;;;18.90;59.10;;;;;;5094664;28;20198;-91
2021/07/19 08:27:49;;;;;;;6.95;3.70;;;18.90;58.70;;;;;;5094629;28;20183;-90
2021/07/19 08:30:16;;;;;;;8.10;3.40;;;18.90;59.80;;;;;;5094934;28;20623;-91
2021/07/19 08:32:42;;;;;;;5.57;3.10;;;18.90;58.30;;;;;;5094898;28;20650;-91
2021/07/19 08:35:10;;;;;;;6.78;3.75;;;18.80;58.00;;;;;;5095090;28;20205;-90
2021/07/19 08:37:37;;;;;;;5.90;3.47;;;18.80;59.10;;;;;;5095099;28;20202;-90
2021/07/19 08:40:04;;;;;;;4.30;3.05;;;19.00;58.10;;;;;;5095706;28;20175;-90
2021/07/19 08:42:30;;;;;;;6.35;3.50;;;19.00;58.40;;;;;;5095129;28;20178;-90
2021/07/19 08:44:56;;;;;;;7.22;2.92;;;18.80;59.80;;;;;;5093577;28;20243;-90
2021/07/19 08:47:22;;;;;;;6.90;3.15;;;18.80;59.30;;;;;;5092715;28;20202;-89
2021/07/19 08:49:47;;;;;;;7.63;3.63;;;18.70;59.60;;;;;;5092458;28;20198;-90
2021/07/19 08:52:16;;;;;;;7.50;3.25;;;18.70;59.10;;;;;;5092734;28;20178;-90
2021/07/19 08:54:47;;;;;;;5.75;3.03;;;18.70;59.40;;;;;;5093869;28;20190;-89
2021/07/19 08:57:14;;;;;;;9.02;2.55;;;18.80;59.50;;;;;;5092723;28;20575;-90
2021/07/19 08:59:40;;;;;;;7.10;3.25;;;18.70;60.40;;;;;;5093805;28;20171;-89
2021/07/19 09:02:07;;;;;;;8.90;3.35;;;18.70;60.90;;;;;;5093573;28;20179;-89
2021/07/19 09:04:36;;;;;;;7.10;3.30;;;18.70;60.80;;;;;;5092158;28;20177;-90
2021/07/19 09:07:03;;;;;;;4.82;2.92;;;18.80;60.80;;;;;;5092493;28;20196;-89
2021/07/19 09:09:35;;;;;;;9.68;3.50;;;18.80;61.10;;;;;;5093306;28;20647;-90
2021/07/19 09:12:06;;;;;;;6.35;3.00;;;18.90;62.10;;;;;;5092056;28;20665;-90
2021/07/19 09:14:32;;;;;;;8.07;3.30;;;18.80;61.40;;;;;;5092200;28;20163;-89
2021/07/19 09:16:59;;;;;;;13.35;3.63;;;18.50;62.90;;;;;;5092194;28;20195;-89
2021/07/19 09:19:27;;;;;;;8.55;3.38;;;18.70;61.80;;;;;;5092382;28;20174;-90
2021/07/19 09:22:01;;;;;;;6.28;3.20;;;18.80;62.10;;;;;;5094106;28;20173;-90
2021/07/19 09:24:34;;;;;;;5.57;3.17;;;18.80;62.80;;;;;;5092513;28;20159;-89
2021/07/19 09:27:00;;;;;;;4.50;2.78;;;18.80;60.60;;;;;;5093503;28;20186;-90
2021/07/19 09:29:27;;;;;;;7.40;2.97;;;18.90;59.20;;;;;;5096188;28;20193;-89
2021/07/19 09:31:57;;;;;;;7.05;3.10;;;18.80;60.20;;;;;;5097479;28;20187;-90
2021/07/19 09:34:25;;;;;;;7.70;3.08;;;18.80;60.40;;;;;;5096326;28;20175;-89
2021/07/19 09:36:54;;;;;;;9.75;3.05;;;18.70;61.00;;;;;;5097121;28;20210;-89
2021/07/19 09:39:20;;;;;;;5.57;2.55;;;18.80;60.60;;;;;;5097508;28;20171;-89
2021/07/19 09:41:46;;;;;;;7.18;2.97;;;18.70;61.30;;;;;;5096012;28;20239;-90
2021/07/19 09:44:12;;;;;;;7.72;3.42;;;18.90;60.30;;;;;;5096189;28;20177;-90
2021/07/19 09:46:40;;;;;;;9.48;3.95;;;18.60;61.40;;;;;;5097091;28;20187;-89
2021/07/19 09:49:06;;;;;;;6.90;2.78;;;18.70;61.70;;;;;;5095980;28;20634;-89
2021/07/19 09:51:34;;;;;;;8.07;3.42;;;18.50;62.90;;;;;;5097290;28;20202;-89
2021/07/19 09:54:32;;;;;;;8.45;3.40;;;18.40;62.90;;;;;;5097525;28;20246;-89
2021/07/19 09:57:00;;;;;;;7.85;3.13;;;18.60;63.40;;;;;;5085904;28;20565;-89
2021/07/19 09:59:25;;;;;;;5.35;3.13;;;18.60;62.60;;;;;;5097545;28;20174;-89
2021/07/19 10:01:51;;;;;;;5.15;2.83;;;18.40;62.70;;;;;;5096993;28;20167;-89
2021/07/19 10:04:19;;;;;;;11.27;3.90;;;18.60;63.40;;;;;;5096035;28;20206;-89
2021/07/19 10:06:53;;;;;;;8.90;3.03;;;18.30;63.60;;;;;;5097197;28;20209;-90
2021/07/19 10:09:23;;;;;;;9.93;3.00;;;18.30;64.60;;;;;;5095725;28;20167;-88
2021/07/19 10:11:52;;;;;;;11.68;3.63;;;18.10;64.40;;;;;;5096981;28;20175;-89
2021/07/19 10:14:26;;;;;;;7.05;3.10;;;18.30;63.90;;;;;;5095734;28;20195;-89
2021/07/19 10:16:53;;;;;;;11.07;4.18;;;18.30;64.20;;;;;;5096816;28;20222;-89
2021/07/19 10:19:20;;;;;;;9.32;4.15;;;18.30;64.80;;;;;;5096836;28;20170;-88
2021/07/19 10:21:46;;;;;;;11.98;4.07;;;18.10;65.60;;;;;;5095766;28;20206;-89
2021/07/19 10:24:11;;;;;;;10.75;3.25;;;18.20;65.30;;;;;;5097569;28;20198;-88
2021/07/19 10:26:38;;;;;;;6.45;2.92;;;18.30;64.70;;;;;;5097044;28;20202;-89
2021/07/19 10:29:05;;;;;;;8.32;3.15;;;18.40;64.90;;;;;;5096890;28;20171;-89
2021/07/19 10:31:32;;;;;;;7.93;2.97;;;18.60;63.60;;;;;;5096712;28;20198;-88
2021/07/19 10:34:01;;;;;;;9.73;3.47;;;18.60;64.70;;;;;;5095279;28;20167;-89
2021/07/19 10:36:47;;;;;;;13.68;4.00;;;18.70;64.30;;;;;;5096436;28;20191;-89
2021/07/19 10:39:24;;;;;;;6.25;3.17;;;18.70;63.40;;;;;;5094332;28;20227;-88
2021/07/19 10:42:09;;;;;;;5.72;3.17;;;18.50;63.90;;;;;;5096141;28;20216;-89
2021/07/19 10:44:36;;;;;;;7.07;3.65;;;18.60;64.10;;;;;;5096147;28;20174;-89
2021/07/19 10:47:15;;;;;;;8.65;3.60;;;18.70;64.10;;;;;;5095283;28;20214;-89
2021/07/19 10:49:43;;;;;;;7.78;3.58;;;18.70;64.30;;;;;;5096072;28;20256;-89
2021/07/19 10:52:10;;;;;;;9.98;3.75;;;18.70;64.30;;;;;;5095898;28;20159;-88
2021/07/19 10:54:49;;;;;;;5.60;3.38;;;18.50;64.90;;;;;;5095942;28;20634;-90
2021/07/19 10:57:17;;;;;;;8.35;3.65;;;18.60;65.20;;;;;;5095281;28;20167;-89
2021/07/19 11:00:01;;;;;;;7.40;3.50;;;18.50;64.00;;;;;;5095555;28;20167;-89
2021/07/19 11:02:28;;;;;;;7.97;3.08;;;18.60;63.90;;;;;;5095754;28;20155;-89
2021/07/19 11:04:54;;;;;;;8.23;3.05;;;18.70;63.10;;;;;;5095271;28;20626;-90
2021/07/19 11:07:28;;;;;;;7.90;3.38;;;18.70;61.00;;;;;;5130366;22;20248;-88
2021/07/19 11:09:54;;;;;;;9.13;3.75;;;18.80;62.20;;;;;;5097482;28;20190;-88
2021/07/19 11:12:21;;;;;;;8.43;3.28;;;18.80;62.50;;;;;;5115895;28;20180;-89
2021/07/19 11:14:52;;;;;;;9.80;3.08;;;18.90;61.50;;;;;;5115722;28;20169;-89
2021/07/19 11:17:20;;;;;;;8.35;3.45;;;18.80;61.90;;;;;;5115500;28;20181;-89
2021/07/19 11:19:53;;;;;;;5.38;3.30;;;18.90;61.80;;;;;;5097134;28;20702;-89
2021/07/19 11:22:23;;;;;;;5.18;2.80;;;19.10;60.50;;;;;;5097154;28;20181;-89
2021/07/19 11:24:52;;;;;;;7.82;3.90;;;19.20;60.80;;;;;;5115349;28;20178;-89
2021/07/19 11:27:30;;;;;;;8.55;3.25;;;19.20;61.70;;;;;;5096999;28;20619;-89
2021/07/19 11:30:07;;;;;;;7.03;3.00;;;19.20;60.50;;;;;;5115211;28;20557;-88
2021/07/19 11:32:33;;;;;;;5.82;2.75;;;19.10;60.60;;;;;;5097045;28;20582;-89
2021/07/19 11:35:22;;;;;;;10.27;3.70;;;19.10;59.60;;;;;;5115081;28;20537;-88
2021/07/19 11:37:51;;;;;;;9.60;3.30;;;19.20;61.80;;;;;;5096893;28;20218;-89
2021/07/19 11:40:31;;;;;;;4.85;3.30;;;19.50;61.20;;;;;;5096849;28;20223;-88
2021/07/19 11:43:11;;;;;;;12.85;3.40;;;19.70;59.80;;;;;;5115252;28;20256;-88
2021/07/19 11:45:42;;;;;;;7.68;3.17;;;19.60;59.10;;;;;;5096757;28;20536;-88
2021/07/19 11:48:10;;;;;;;6.60;3.63;;;19.60;59.40;;;;;;5096618;28;20288;-88
2021/07/19 11:50:37;;;;;;;5.80;2.88;;;19.70;60.10;;;;;;5095795;28;20246;-87
2021/07/19 11:53:03;;;;;;;9.88;4.15;;;19.30;61.00;;;;;;5096632;28;20269;-88
2021/07/19 11:55:30;;;;;;;8.52;3.08;;;19.40;60.80;;;;;;5096635;28;20369;-88
2021/07/19 11:58:03;;;;;;;7.90;3.17;;;19.20;61.10;;;;;;5096666;28;20190;-87
2021/07/19 12:00:34;;;;;;;6.95;3.28;;;19.20;60.10;;;;;;5096486;28;20227;-88
2021/07/19 12:03:01;;;;;;;7.35;3.80;;;19.30;60.60;;;;;;5114579;28;20178;-88
2021/07/19 12:05:28;;;;;;;5.57;3.20;;;19.30;60.20;;;;;;5114677;28;20535;-88
2021/07/19 12:08:05;;;;;;;7.45;2.97;;;19.10;61.80;;;;;;5096203;28;20206;-87
2021/07/19 12:10:34;;;;;;;5.22;2.88;;;19.10;60.40;;;;;;5096403;28;20680;-87
2021/07/19 12:13:11;;;;;;;6.82;3.10;;;19.10;61.70;;;;;;5096607;28;20549;-90
2021/07/19 12:15:51;;;;;;;6.38;3.05;;;19.40;60.10;;;;;;5114750;28;20517;-85
2021/07/19 12:18:27;;;;;;;5.47;3.78;;;19.50;59.50;;;;;;5114705;28;20218;-87
2021/07/19 12:21:18;;;;;;;9.30;3.88;;;19.70;61.20;;;;;;5097086;28;20205;-86
2021/07/19 12:23:43;;;;;;;15.27;3.20;;;19.80;61.70;;;;;;5110014;28;20205;-85
2021/07/19 12:26:16;;;;;;;4.63;3.03;;;20.10;59.80;;;;;;5096760;28;20186;-85
2021/07/19 12:29:03;;;;;;;13.30;3.60;;;19.50;61.40;;;;;;5114817;28;20204;-86
2021/07/19 12:31:33;;;;;;;12.65;3.55;;;19.80;60.80;;;;;;5114354;28;20185;-87
2021/07/19 12:34:06;;;;;;;11.25;4.07;;;19.50;61.50;;;;;;5116062;28;20166;-90
2021/07/19 12:36:32;;;;;;;6.22;3.53;;;19.80;61.10;;;;;;5110740;28;20544;-89
2021/07/19 12:39:05;;;;;;;7.88;3.58;;;19.90;60.90;;;;;;5098038;28;20180;-87
2021/07/19 12:41:32;;;;;;;9.38;3.50;;;19.60;62.00;;;;;;5096390;28;20162;-88
2021/07/19 12:44:06;;;;;;;8.45;3.97;;;19.80;62.00;;;;;;5114480;28;20174;-89
2021/07/19 12:46:44;;;;;;;8.95;3.58;;;20.10;61.50;;;;;;5095983;28;20293;-88
2021/07/19 12:49:11;;;;;;;10.55;3.65;;;20.20;61.50;;;;;;5096252;28;20200;-87